createdAt,value
2018-12-17T00:00:30.197Z,73.20
2018-12-17T00:02:58.267Z,65.20
2018-12-17T00:05:26.591Z,65.20
2018-12-17T00:07:54.788Z,67.43
2018-12-17T00:10:22.905Z,65.53
2018-12-17T00:12:51.098Z,65.80
2018-12-17T00:15:19.127Z,64.93
2018-12-17T00:17:46.999Z,64.67
2018-12-17T00:20:15.472Z,69.43
2018-12-17T00:22:43.347Z,67.67
2018-12-17T00:25:11.409Z,67.93
2018-12-17T00:27:39.493Z,69.80
2018-12-17T00:30:07.977Z,65.07
2018-12-17T00:32:36.031Z,73.97
2018-12-17T00:35:05.294Z,67.30
2018-12-17T00:37:34.225Z,70.20
2018-12-17T00:40:03.212Z,70.03
2018-12-17T00:42:31.835Z,72.73
2018-12-17T00:45:00.071Z,71.93
2018-12-17T00:47:28.150Z,73.27
2018-12-17T00:49:56.032Z,71.67
2018-12-17T00:52:23.971Z,74.70
2018-12-17T00:54:52.452Z,76.37
2018-12-17T00:57:20.521Z,78.73
2018-12-17T00:59:48.388Z,74.40
2018-12-17T01:02:16.458Z,71.17
2018-12-17T01:04:44.528Z,75.50
2018-12-17T01:07:12.606Z,71.27
2018-12-17T01:09:40.669Z,73.27
2018-12-17T01:12:08.739Z,78.30
2018-12-17T01:14:37.221Z,74.57
2018-12-17T01:17:05.291Z,78.97
2018-12-17T01:19:33.263Z,76.37
2018-12-17T01:22:01.096Z,77.07
2018-12-17T01:24:29.195Z,74.80
2018-12-17T01:26:57.892Z,80.33
2018-12-17T01:29:25.783Z,80.63
2018-12-17T01:31:53.637Z,79.07
2018-12-17T01:34:21.848Z,76.53
2018-12-17T01:36:49.859Z,75.57
2018-12-17T01:39:17.943Z,79.63
2018-12-17T01:41:46.388Z,75.43
2018-12-17T01:44:14.485Z,77.50
2018-12-17T01:46:42.757Z,75.50
2018-12-17T01:49:11.026Z,81.57
2018-12-17T01:51:39.104Z,75.87
2018-12-17T01:54:07.182Z,77.23
2018-12-17T01:56:35.644Z,73.53
2018-12-17T01:59:03.717Z,67.73
2018-12-17T02:01:32.604Z,69.80
2018-12-17T02:04:00.960Z,69.93
2018-12-17T02:06:29.155Z,66.73
2018-12-17T02:08:58.254Z,70.03
2018-12-17T02:11:26.319Z,71.37
2018-12-17T02:13:54.196Z,71.77
2018-12-17T02:16:22.052Z,67.57
2018-12-17T02:18:49.917Z,72.80
2018-12-17T02:21:17.786Z,67.50
2018-12-17T02:23:46.405Z,68.43
2018-12-17T02:26:14.337Z,70.63
2018-12-17T02:28:42.409Z,73.57
2018-12-17T02:31:10.884Z,65.73
2018-12-17T02:33:38.750Z,71.13
2018-12-17T02:36:06.879Z,69.30
2018-12-17T02:38:35.300Z,72.47
2018-12-17T02:41:03.380Z,69.30
2018-12-17T02:43:31.456Z,71.10
2018-12-17T02:45:59.510Z,68.40
2018-12-17T02:48:27.895Z,72.90
2018-12-17T02:50:55.757Z,77.03
2018-12-17T02:53:23.622Z,80.57
2018-12-17T02:55:51.593Z,85.53
2018-12-17T02:58:19.630Z,76.83
2018-12-17T03:00:47.831Z,80.30
2018-12-17T03:03:15.694Z,78.80
2018-12-17T03:05:43.773Z,79.47
2018-12-17T03:08:11.943Z,71.93
2018-12-17T03:10:40.644Z,78.93
2018-12-17T03:13:08.703Z,76.03
2018-12-17T03:15:36.782Z,72.57
2018-12-17T03:18:05.451Z,78.17
2018-12-17T03:20:33.747Z,77.30
2018-12-17T03:23:01.796Z,74.90
2018-12-17T03:25:29.763Z,92.03
2018-12-17T03:27:57.652Z,83.00
2018-12-17T03:30:25.938Z,82.03
2018-12-17T03:32:55.132Z,84.67
2018-12-17T03:35:23.376Z,79.83
2018-12-17T03:37:51.487Z,83.00
2018-12-17T03:40:19.535Z,94.37
2018-12-17T03:42:47.614Z,87.00
2018-12-17T03:45:15.563Z,85.43
2018-12-17T03:47:43.831Z,88.20
2018-12-17T03:50:12.785Z,84.30
2018-12-17T03:52:40.703Z,86.97
2018-12-17T03:55:09.018Z,91.23
2018-12-17T03:57:37.033Z,86.43
2018-12-17T04:00:06.664Z,90.13
2018-12-17T04:02:34.609Z,93.00
2018-12-17T04:05:02.561Z,85.43
2018-12-17T04:07:30.815Z,89.50
2018-12-17T04:09:59.757Z,87.20
2018-12-17T04:12:27.813Z,89.53
2018-12-17T04:14:55.849Z,87.60
2018-12-17T04:17:23.759Z,87.83
2018-12-17T04:19:51.680Z,90.00
2018-12-17T04:22:19.686Z,90.23
2018-12-17T04:24:47.792Z,85.60
2018-12-17T04:27:15.899Z,98.07
2018-12-17T04:29:43.819Z,84.13
2018-12-17T04:32:11.882Z,88.70
2018-12-17T04:34:39.784Z,93.17
2018-12-17T04:37:07.699Z,94.73
2018-12-17T04:39:36.011Z,97.57
2018-12-17T04:42:04.054Z,92.17
2018-12-17T04:44:32.208Z,93.07
2018-12-17T04:47:00.187Z,101.70
2018-12-17T04:49:28.665Z,116.00
2018-12-17T04:51:56.737Z,115.43
2018-12-17T04:54:25.391Z,109.87
2018-12-17T04:56:53.367Z,106.70
2018-12-17T04:59:21.387Z,107.13
2018-12-17T05:01:49.254Z,105.63
2018-12-17T05:04:18.982Z,109.20
2018-12-17T05:06:47.617Z,113.63
2018-12-17T05:09:15.876Z,115.73
2018-12-17T05:11:48.225Z,113.63
2018-12-17T05:14:16.296Z,130.07
2018-12-17T05:16:44.406Z,123.23
2018-12-17T05:19:12.419Z,126.10
2018-12-17T05:21:40.659Z,116.80
2018-12-17T05:24:08.655Z,116.60
2018-12-17T05:26:39.127Z,115.47
2018-12-17T05:29:08.532Z,113.43
2018-12-17T05:31:39.174Z,131.53
2018-12-17T05:34:07.555Z,124.30
2018-12-17T05:36:36.016Z,137.43
2018-12-17T05:39:05.970Z,126.20
2018-12-17T05:41:33.993Z,122.20
2018-12-17T05:44:01.848Z,153.80
2018-12-17T05:46:29.760Z,150.30
2018-12-17T05:48:57.628Z,132.93
2018-12-17T05:51:26.257Z,125.23
2018-12-17T05:53:54.298Z,128.70
2018-12-17T05:56:22.398Z,132.60
2018-12-17T05:58:50.620Z,137.37
2018-12-17T06:01:18.912Z,140.27
2018-12-17T06:03:46.872Z,142.63
2018-12-17T06:06:14.807Z,138.97
2018-12-17T06:08:44.263Z,141.43
2018-12-17T06:11:12.575Z,128.47
2018-12-17T06:13:40.895Z,121.40
2018-12-17T06:16:10.356Z,125.30
2018-12-17T06:18:39.091Z,124.67
2018-12-17T06:21:07.368Z,141.10
2018-12-17T06:23:35.533Z,137.47
2018-12-17T06:26:04.000Z,131.87
2018-12-17T06:28:31.968Z,158.20
2018-12-17T06:31:00.688Z,144.77
2018-12-17T06:33:28.536Z,132.93
2018-12-17T06:35:56.464Z,135.90
2018-12-17T06:38:24.335Z,133.63
2018-12-17T06:40:53.504Z,130.03
2018-12-17T06:43:21.336Z,132.10
2018-12-17T06:45:49.791Z,127.40
2018-12-17T06:48:17.656Z,131.93
2018-12-17T06:50:46.023Z,136.87
2018-12-17T06:53:14.333Z,131.30
2018-12-17T06:55:42.377Z,153.40
2018-12-17T06:58:10.574Z,139.97
2018-12-17T07:00:38.933Z,145.87
2018-12-17T07:03:06.796Z,156.50
2018-12-17T07:05:34.863Z,137.13
2018-12-17T07:08:04.066Z,124.47
2018-12-17T07:10:32.139Z,133.77
2018-12-17T07:13:00.618Z,132.40
2018-12-17T07:15:28.689Z,142.10
2018-12-17T07:17:56.572Z,145.03
2018-12-17T07:20:24.543Z,133.03
2018-12-17T07:22:52.689Z,140.30
2018-12-17T07:25:20.965Z,139.97
2018-12-17T07:27:49.038Z,133.03
2018-12-17T07:30:17.236Z,124.20
2018-12-17T07:32:45.084Z,142.13
2018-12-17T07:35:13.256Z,143.23
2018-12-17T07:37:41.336Z,162.63
2018-12-17T07:40:09.608Z,147.10
2018-12-17T07:42:37.691Z,160.83
2018-12-17T07:45:05.833Z,150.17
2018-12-17T07:47:33.812Z,145.80
2018-12-17T07:50:01.876Z,154.00
2018-12-17T07:52:30.155Z,157.60
2018-12-17T07:55:01.290Z,149.80
2018-12-17T07:57:29.449Z,142.57
2018-12-17T07:59:58.425Z,162.63
2018-12-17T08:02:26.279Z,212.97
2018-12-17T08:04:54.600Z,156.97
2018-12-17T08:07:22.563Z,141.87
2018-12-17T08:09:50.546Z,158.63
2018-12-17T08:12:19.574Z,153.53
2018-12-17T08:14:47.458Z,137.70
2018-12-17T08:17:16.515Z,142.37
2018-12-17T08:19:45.100Z,149.20
2018-12-17T08:22:12.977Z,132.73
2018-12-17T08:24:40.904Z,128.03
2018-12-17T08:27:09.347Z,135.07
2018-12-17T08:29:37.698Z,138.80
2018-12-17T08:32:05.586Z,138.67
2018-12-17T08:34:33.907Z,115.43
2018-12-17T08:37:01.886Z,119.13
2018-12-17T08:39:29.763Z,110.00
2018-12-17T08:41:57.935Z,111.50
2018-12-17T08:44:25.779Z,118.43
2018-12-17T08:46:53.674Z,114.93
2018-12-17T08:49:22.025Z,117.90
2018-12-17T08:51:49.931Z,115.87
2018-12-17T08:54:17.791Z,120.00
2018-12-17T08:56:45.929Z,108.53
2018-12-17T08:59:13.990Z,103.53
2018-12-17T09:01:42.650Z,112.00
2018-12-17T09:04:10.488Z,106.20
2018-12-17T09:06:38.379Z,106.80
2018-12-17T09:09:06.711Z,113.80
2018-12-17T09:11:34.603Z,107.87
2018-12-17T09:14:02.885Z,104.00
2018-12-17T09:16:30.728Z,105.13
2018-12-17T09:18:58.608Z,97.37
2018-12-17T09:21:26.429Z,92.37
2018-12-17T09:23:54.260Z,100.50
2018-12-17T09:26:22.067Z,95.10
2018-12-17T09:28:50.196Z,92.63
2018-12-17T09:31:18.193Z,93.63
2018-12-17T09:33:46.012Z,91.90
2018-12-17T09:36:14.342Z,90.20
2018-12-17T09:38:42.211Z,94.20
2018-12-17T09:41:10.088Z,91.43
2018-12-17T09:43:38.229Z,95.63
2018-12-17T09:46:06.047Z,93.07
2018-12-17T09:48:33.923Z,92.93
2018-12-17T09:51:01.991Z,93.93
2018-12-17T09:53:29.820Z,95.57
2018-12-17T09:55:58.618Z,96.67
2018-12-17T09:58:26.747Z,112.33
2018-12-17T10:00:54.601Z,113.57
2018-12-17T10:03:22.999Z,109.97
2018-12-17T10:05:50.864Z,107.77
2018-12-17T10:08:18.750Z,101.13
2018-12-17T10:10:46.650Z,108.20
2018-12-17T10:13:14.612Z,101.77
2018-12-17T10:15:42.735Z,114.33
2018-12-17T10:18:10.599Z,111.70
2018-12-17T10:20:38.548Z,97.43
2018-12-17T10:23:06.356Z,106.83
2018-12-17T10:25:34.250Z,111.40
2018-12-17T10:28:02.151Z,115.40
2018-12-17T10:30:32.660Z,112.83
2018-12-17T10:32:59.931Z,103.47
2018-12-17T10:35:28.313Z,111.23
2018-12-17T10:37:56.999Z,105.43
2018-12-17T10:40:24.847Z,98.40
2018-12-17T10:42:52.934Z,108.47
2018-12-17T10:45:20.971Z,101.40
2018-12-17T10:47:48.961Z,103.33
2018-12-17T10:50:17.443Z,111.10
2018-12-17T10:52:45.418Z,105.67
2018-12-17T10:55:13.235Z,112.07
2018-12-17T10:57:41.143Z,107.93
2018-12-17T11:00:13.232Z,100.60
2018-12-17T11:02:41.338Z,100.40
2018-12-17T11:05:11.281Z,95.73
2018-12-17T11:07:39.367Z,97.60
2018-12-17T11:10:07.274Z,93.83
2018-12-17T11:12:35.839Z,93.83
2018-12-17T11:15:06.758Z,95.97
2018-12-17T11:17:34.805Z,94.37
2018-12-17T11:20:03.178Z,97.57
2018-12-17T11:22:31.325Z,99.87
2018-12-17T11:24:59.789Z,91.60
2018-12-17T11:27:27.919Z,87.13
2018-12-17T11:29:55.819Z,89.87
2018-12-17T11:32:24.356Z,83.20
2018-12-17T11:34:52.422Z,87.57
2018-12-17T11:37:20.251Z,91.00
2018-12-17T11:39:48.064Z,73.87
2018-12-17T11:42:16.201Z,82.23
2018-12-17T11:44:44.316Z,78.97
2018-12-17T11:47:12.607Z,71.30
2018-12-17T11:49:41.557Z,75.13
2018-12-17T11:52:10.780Z,73.37
2018-12-17T11:54:38.604Z,80.00
2018-12-17T11:57:14.422Z,70.53
2018-12-17T11:59:42.253Z,69.13
2018-12-17T12:02:10.072Z,69.90
2018-12-17T12:04:37.891Z,75.00
2018-12-17T12:07:05.900Z,85.53
2018-12-17T12:09:36.232Z,82.40
2018-12-17T12:12:04.280Z,88.77
2018-12-17T12:14:32.123Z,87.43
2018-12-17T12:17:01.138Z,86.37
2018-12-17T12:19:28.952Z,87.70
2018-12-17T12:21:56.835Z,92.50
2018-12-17T12:24:24.659Z,92.07
2018-12-17T12:26:52.729Z,89.43
2018-12-17T12:29:20.696Z,91.47
2018-12-17T12:31:48.827Z,87.80
2018-12-17T12:34:16.868Z,99.30
2018-12-17T12:36:44.795Z,88.80
2018-12-17T12:39:12.716Z,92.60
2018-12-17T12:41:40.542Z,84.90
2018-12-17T12:44:09.002Z,89.93
2018-12-17T12:46:36.935Z,87.07
2018-12-17T12:49:04.775Z,83.73
2018-12-17T12:51:33.005Z,96.97
2018-12-17T12:54:01.058Z,92.93
2018-12-17T12:56:28.995Z,85.00
2018-12-17T12:58:56.903Z,87.60
2018-12-17T13:01:24.731Z,91.53
2018-12-17T13:03:52.789Z,81.90
2018-12-17T13:06:21.639Z,88.33
2018-12-17T13:08:49.446Z,92.37
2018-12-17T13:11:17.605Z,90.03
2018-12-17T13:13:45.423Z,82.30
2018-12-17T13:16:13.271Z,90.53
2018-12-17T13:18:41.147Z,89.13
2018-12-17T13:21:09.443Z,90.70
2018-12-17T13:23:37.355Z,90.17
2018-12-17T13:26:05.317Z,87.67
2018-12-17T13:28:33.167Z,92.57
2018-12-17T13:31:01.375Z,91.20
2018-12-17T13:33:29.225Z,86.83
2018-12-17T13:35:57.065Z,87.87
2018-12-17T13:38:25.278Z,83.07
2018-12-17T13:40:53.123Z,91.73
2018-12-17T13:43:20.932Z,87.83
2018-12-17T13:45:49.280Z,87.33
2018-12-17T13:48:17.156Z,85.87
2018-12-17T13:50:44.996Z,91.67
2018-12-17T13:53:18.392Z,83.00
2018-12-17T13:55:46.821Z,83.93
2018-12-17T13:58:14.913Z,90.93
2018-12-17T14:00:42.740Z,89.03
2018-12-17T14:03:10.569Z,91.47
2018-12-17T14:05:38.402Z,87.70
2018-12-17T14:08:06.363Z,89.30
2018-12-17T14:10:40.094Z,90.20
2018-12-17T14:13:07.943Z,86.10
2018-12-17T14:15:41.684Z,90.63
2018-12-17T14:18:15.242Z,85.90
2018-12-17T14:20:48.601Z,95.67
2018-12-17T14:23:17.292Z,89.43
2018-12-17T14:25:45.133Z,95.80
2018-12-17T14:28:14.586Z,83.80
2018-12-17T14:30:43.824Z,86.57
2018-12-17T14:33:11.685Z,92.57
2018-12-17T14:35:41.628Z,92.17
2018-12-17T14:38:09.487Z,88.63
2018-12-17T14:41:28.996Z,93.67
2018-12-17T14:43:59.642Z,90.20
2018-12-17T14:46:29.999Z,96.77
2018-12-17T14:48:58.023Z,94.80
2018-12-17T14:51:26.237Z,88.87
2018-12-17T14:53:54.988Z,95.13
2018-12-17T14:56:23.753Z,86.03
2018-12-17T14:58:51.611Z,96.03
2018-12-17T15:01:19.856Z,92.00
2018-12-17T15:03:47.979Z,96.37
2018-12-17T15:06:15.824Z,96.07
2018-12-17T15:08:43.690Z,94.10
2018-12-17T15:11:12.982Z,95.27
2018-12-17T15:13:41.213Z,95.97
2018-12-17T15:16:09.781Z,89.93
2018-12-17T15:18:39.964Z,89.33
2018-12-17T15:21:09.120Z,93.50
2018-12-17T15:23:37.117Z,90.47
2018-12-17T15:26:04.988Z,84.20
2018-12-17T15:28:33.358Z,81.70
2018-12-17T15:31:01.512Z,82.23
2018-12-17T15:33:29.433Z,87.27
2018-12-17T15:35:57.698Z,88.27
2018-12-17T15:38:25.599Z,84.33
2018-12-17T15:40:53.588Z,82.07
2018-12-17T15:43:21.751Z,75.83
2018-12-17T15:45:50.105Z,87.00
2018-12-17T15:48:17.947Z,76.37
2018-12-17T15:50:45.789Z,78.77
2018-12-17T15:53:14.239Z,83.50
2018-12-17T15:55:42.143Z,79.47
2018-12-17T15:58:09.995Z,79.70
2018-12-17T16:00:38.976Z,82.00
2018-12-17T16:03:08.175Z,77.73
2018-12-17T16:05:36.144Z,82.57
2018-12-17T16:08:04.441Z,82.83
2018-12-17T16:10:33.184Z,78.90
2018-12-17T16:13:02.523Z,71.70
2018-12-17T16:15:30.596Z,84.17
2018-12-17T16:17:59.172Z,84.23
2018-12-17T16:20:27.102Z,79.10
2018-12-17T16:22:56.564Z,84.20
2018-12-17T16:25:24.476Z,82.57
2018-12-17T16:27:52.448Z,91.27
2018-12-17T16:30:20.661Z,87.40
2018-12-17T16:32:48.775Z,94.70
2018-12-17T16:35:16.659Z,82.50
2018-12-17T16:37:44.773Z,91.60
2018-12-17T16:40:12.792Z,100.53
2018-12-17T16:42:40.944Z,100.87
2018-12-17T16:45:09.299Z,95.87
2018-12-17T16:47:37.209Z,92.50
2018-12-17T16:50:07.773Z,160.13
2018-12-17T16:52:35.627Z,105.13
2018-12-17T16:55:03.755Z,90.60
2018-12-17T16:57:31.921Z,93.50
2018-12-17T16:59:59.818Z,108.17
2018-12-17T17:02:28.012Z,108.63
2018-12-17T17:04:55.865Z,106.90
2018-12-17T17:07:23.712Z,111.00
2018-12-17T17:09:51.547Z,90.23
2018-12-17T17:12:19.771Z,111.73
2018-12-17T17:14:48.351Z,93.90
2018-12-17T17:17:16.491Z,108.53
2018-12-17T17:19:50.643Z,102.17
2018-12-17T17:22:14.838Z,109.50
2018-12-17T17:24:42.700Z,102.00
2018-12-17T17:27:10.556Z,92.90
2018-12-17T17:29:39.298Z,100.00
2018-12-17T17:32:11.685Z,90.43
2018-12-17T17:34:37.555Z,93.80
2018-12-17T17:37:05.438Z,94.43
2018-12-17T17:39:33.642Z,91.73
2018-12-17T17:42:01.757Z,97.40
2018-12-17T17:44:29.589Z,94.07
2018-12-17T17:46:58.260Z,102.27
2018-12-17T17:49:26.180Z,129.80
2018-12-17T17:51:54.068Z,100.27
2018-12-17T17:54:21.929Z,97.23
2018-12-17T17:56:49.773Z,87.23
2018-12-17T17:59:18.091Z,96.30
2018-12-17T18:01:46.348Z,89.33
2018-12-17T18:04:14.254Z,92.77
2018-12-17T18:06:42.142Z,82.07
2018-12-17T18:09:09.988Z,91.20
2018-12-17T18:11:38.032Z,99.60
2018-12-17T18:14:05.869Z,86.73
2018-12-17T18:16:33.767Z,92.37
2018-12-17T18:19:02.536Z,89.60
2018-12-17T18:21:30.751Z,86.37
2018-12-17T18:23:58.597Z,93.70
2018-12-17T18:26:27.116Z,87.03
2018-12-17T18:28:55.468Z,92.07
2018-12-17T18:31:23.337Z,85.30
2018-12-17T18:33:51.538Z,88.43
2018-12-17T18:36:20.636Z,81.77
2018-12-17T18:38:48.972Z,91.33
2018-12-17T18:41:17.488Z,86.13
2018-12-17T18:43:48.727Z,85.70
2018-12-17T18:46:18.111Z,89.57
2018-12-17T18:48:47.105Z,91.07
2018-12-17T18:51:15.301Z,94.30
2018-12-17T18:53:43.902Z,92.03
2018-12-17T18:56:12.091Z,92.17
2018-12-17T18:58:40.649Z,89.03
2018-12-17T19:01:08.788Z,87.83
2018-12-17T19:03:36.677Z,89.83
2018-12-17T19:06:04.556Z,79.20
2018-12-17T19:08:32.471Z,89.87
2018-12-17T19:11:00.890Z,89.87
2018-12-17T19:13:28.722Z,81.87
2018-12-17T19:15:58.835Z,78.77
2018-12-17T19:18:27.079Z,146.00
2018-12-17T19:20:56.835Z,88.17
2018-12-17T19:23:25.397Z,82.40
2018-12-17T19:25:53.900Z,89.97
2018-12-17T19:28:22.379Z,84.30
2018-12-17T19:30:50.240Z,79.50
2018-12-17T19:33:18.937Z,88.43
2018-12-17T19:35:47.422Z,85.07
2018-12-17T19:38:17.025Z,79.47
2018-12-17T19:40:45.714Z,81.73
2018-12-17T19:43:15.488Z,82.60
2018-12-17T19:45:43.761Z,82.23
2018-12-17T19:48:12.920Z,79.30
2018-12-17T19:50:41.565Z,84.07
2018-12-17T19:53:10.941Z,81.93
2018-12-17T19:55:39.017Z,94.93
2018-12-17T19:58:08.617Z,87.60
2018-12-17T20:00:50.112Z,81.50
2018-12-17T20:05:50.121Z,83.57
2018-12-17T20:08:23.840Z,78.47
2018-12-17T20:10:58.452Z,76.43
2018-12-17T20:14:54.243Z,78.70
2018-12-17T20:21:04.511Z,88.07
2018-12-17T20:23:32.905Z,77.63
2018-12-17T20:26:20.470Z,83.63
2018-12-17T20:28:48.679Z,87.50
2018-12-17T20:31:17.410Z,89.70
2018-12-17T20:33:45.339Z,86.73
2018-12-17T20:36:13.210Z,87.30
2018-12-17T20:38:41.084Z,85.23
2018-12-17T20:41:09.382Z,92.87
2018-12-17T20:43:38.142Z,87.23
2018-12-17T20:46:08.399Z,97.00
2018-12-17T20:48:36.401Z,91.10
2018-12-17T20:54:25.373Z,93.30
2018-12-17T20:56:53.593Z,90.97
2018-12-17T20:59:21.457Z,96.23
2018-12-17T21:01:50.297Z,88.33
2018-12-17T21:04:18.756Z,93.80
2018-12-17T21:06:50.103Z,95.47
2018-12-17T21:09:17.594Z,90.67
2018-12-17T21:11:45.488Z,91.43
2018-12-17T21:14:13.363Z,94.93
2018-12-17T21:16:41.405Z,90.13
2018-12-17T21:19:09.379Z,86.07
2018-12-17T21:21:37.292Z,92.10
2018-12-17T21:24:05.257Z,99.63
2018-12-17T21:26:33.148Z,94.03
2018-12-17T21:29:01.180Z,91.37
2018-12-17T21:31:29.282Z,84.37
2018-12-17T21:33:57.373Z,91.37
2018-12-17T21:36:25.306Z,93.97
2018-12-17T21:38:53.297Z,84.10
2018-12-17T21:41:21.230Z,93.50
2018-12-17T21:43:49.239Z,93.83
2018-12-17T21:46:17.484Z,93.33
2018-12-17T21:48:45.374Z,95.97
2018-12-17T21:51:13.256Z,100.40
2018-12-17T21:53:42.459Z,95.17
2018-12-17T21:56:10.404Z,98.53
2018-12-17T21:58:38.247Z,97.17
2018-12-17T22:01:06.547Z,90.27
2018-12-17T22:03:34.426Z,91.80
2018-12-17T22:06:02.486Z,97.47
2018-12-17T22:08:30.350Z,96.73
2018-12-17T22:10:58.417Z,108.93
2018-12-17T22:13:26.481Z,113.53
2018-12-17T22:15:54.775Z,106.63
2018-12-17T22:18:23.674Z,99.53
2018-12-17T22:20:51.509Z,92.07
2018-12-17T22:23:19.595Z,94.43
2018-12-17T22:25:47.597Z,105.83
2018-12-17T22:28:15.532Z,93.23
2018-12-17T22:30:43.626Z,97.93
2018-12-17T22:33:19.657Z,103.40
2018-12-17T22:35:43.242Z,107.33
2018-12-17T22:38:11.703Z,104.43
2018-12-17T22:40:40.935Z,107.13
2018-12-17T22:43:10.854Z,104.57
2018-12-17T22:45:39.014Z,112.63
2018-12-17T22:48:08.497Z,108.67
2018-12-17T22:50:36.526Z,110.50
2018-12-17T22:53:04.665Z,107.60
2018-12-17T22:55:33.374Z,109.47
2018-12-17T22:58:01.587Z,116.20
2018-12-17T23:00:29.661Z,103.63
2018-12-17T23:02:57.530Z,115.60
2018-12-17T23:05:25.495Z,99.83
2018-12-17T23:07:53.359Z,106.07
2018-12-17T23:10:35.737Z,105.20
2018-12-17T23:13:15.819Z,116.20
2018-12-17T23:15:55.749Z,120.43
2018-12-17T23:18:23.533Z,117.87
2018-12-17T23:20:51.498Z,125.90
2018-12-17T23:23:19.932Z,118.27
2018-12-17T23:25:48.255Z,121.83
2018-12-17T23:28:16.118Z,118.67
2018-12-17T23:30:43.987Z,123.93
2018-12-17T23:33:12.061Z,127.93
2018-12-17T23:35:40.123Z,123.57
2018-12-17T23:38:08.160Z,123.57
2018-12-17T23:40:36.303Z,121.40
2018-12-17T23:43:04.336Z,120.13
2018-12-17T23:45:32.611Z,133.30
2018-12-17T23:48:01.645Z,125.27
2018-12-17T23:50:29.674Z,125.33
2018-12-17T23:52:57.744Z,119.30
2018-12-17T23:55:26.226Z,127.27
2018-12-17T23:57:54.088Z,125.90
